Time;durP1;ratioP1;P1;durP2;ratioP2;P2;SDS_P1;SDS_P2;PMS_P1;PMS_P2;Temp;Humidity;BMP_temperature;BMP_pressure;BME280_temperature;BME280_humidity;BME280_pressure;Samples;Min_cycle;Max_cycle;Signal;HPM_P1;HPM_P2
2022/08/21 00:01:28;;;;;;;16.80;15.37;;;16.40;99.90;;;;;;4952372;29;20464;-71
2022/08/21 00:03:55;;;;;;;16.03;15.23;;;16.30;99.90;;;;;;4952325;29;20462;-72
2022/08/21 00:06:23;;;;;;;15.10;14.20;;;16.30;99.90;;;;;;4952331;29;20459;-72
2022/08/21 00:08:50;;;;;;;14.97;14.10;;;16.30;99.90;;;;;;4952202;29;20966;-71
2022/08/21 00:11:18;;;;;;;15.37;14.30;;;16.20;99.90;;;;;;4952167;29;21046;-72
2022/08/21 00:13:45;;;;;;;15.73;14.83;;;16.20;99.90;;;;;;4952179;29;20870;-71
2022/08/21 00:16:12;;;;;;;15.73;14.70;;;16.20;99.90;;;;;;4952098;29;20483;-71
2022/08/21 00:18:38;;;;;;;15.13;14.40;;;16.20;99.90;;;;;;4952253;29;20463;-71
2022/08/21 00:21:05;;;;;;;15.87;14.90;;;16.20;99.90;;;;;;4952112;29;20456;-72
2022/08/21 00:23:34;;;;;;;16.93;15.83;;;16.20;99.90;;;;;;4952001;29;20899;-72
2022/08/21 00:26:00;;;;;;;15.73;14.87;;;16.20;99.90;;;;;;4953329;28;20467;-71
2022/08/21 00:28:29;;;;;;;16.00;14.90;;;16.10;99.90;;;;;;4955527;29;20463;-72
2022/08/21 00:30:56;;;;;;;15.57;14.57;;;16.10;99.90;;;;;;4955592;29;20460;-71
2022/08/21 00:33:23;;;;;;;15.53;14.60;;;16.00;99.90;;;;;;4955702;29;20452;-71
2022/08/21 00:35:50;;;;;;;16.37;15.27;;;16.00;99.90;;;;;;4955495;29;20949;-71
2022/08/21 00:38:16;;;;;;;14.90;14.10;;;15.90;99.90;;;;;;4955491;29;20456;-71
2022/08/21 00:40:47;;;;;;;16.03;14.97;;;15.90;99.90;;;;;;4955100;29;20480;-70
2022/08/21 00:43:17;;;;;;;14.80;14.00;;;15.80;99.90;;;;;;4954191;29;20499;-71
2022/08/21 00:45:45;;;;;;;15.60;14.80;;;15.80;99.90;;;;;;4955132;29;20460;-70
2022/08/21 00:48:12;;;;;;;14.80;14.10;;;15.80;99.90;;;;;;4955072;29;20810;-70
2022/08/21 00:50:42;;;;;;;14.87;13.93;;;15.80;99.90;;;;;;4955243;29;20456;-70
2022/08/21 00:53:13;;;;;;;15.23;14.13;;;15.70;99.90;;;;;;4955238;29;20464;-71
2022/08/21 00:55:40;;;;;;;15.00;14.20;;;15.70;99.90;;;;;;4955357;29;20535;-71
2022/08/21 00:58:09;;;;;;;16.00;14.87;;;15.70;99.90;;;;;;4955168;29;20468;-70
2022/08/21 01:00:38;;;;;;;16.13;15.13;;;15.70;99.90;;;;;;4954921;29;20456;-71
2022/08/21 01:03:11;;;;;;;14.63;13.83;;;15.70;99.90;;;;;;4954845;29;20492;-71
2022/08/21 01:05:38;;;;;;;14.93;13.93;;;15.70;99.90;;;;;;4955114;29;20461;-71
2022/08/21 01:08:07;;;;;;;16.47;15.30;;;15.60;99.90;;;;;;4954830;29;20464;-71
2022/08/21 01:10:34;;;;;;;16.50;15.30;;;15.60;99.90;;;;;;4954716;29;20555;-71
2022/08/21 01:13:02;;;;;;;16.37;15.53;;;15.50;99.90;;;;;;4954758;29;20457;-72
2022/08/21 01:15:31;;;;;;;15.67;14.77;;;15.50;99.90;;;;;;4954608;29;20827;-73
2022/08/21 01:17:58;;;;;;;16.10;15.30;;;15.40;99.90;;;;;;4954494;29;20449;-71
2022/08/21 01:20:27;;;;;;;16.87;15.67;;;15.40;99.90;;;;;;4954662;29;20464;-71
2022/08/21 01:22:55;;;;;;;13.73;13.03;;;15.40;99.90;;;;;;4954629;29;20499;-71
2022/08/21 01:25:21;;;;;;;17.43;16.20;;;15.40;99.90;;;;;;4954710;28;20459;-71
2022/08/21 01:27:49;;;;;;;14.60;13.80;;;15.40;99.90;;;;;;4954350;29;20951;-71
2022/08/21 01:30:18;;;;;;;14.50;13.80;;;15.40;99.90;;;;;;4954400;29;20456;-71
2022/08/21 01:32:46;;;;;;;14.93;14.20;;;15.40;99.90;;;;;;4954166;29;20507;-71
2022/08/21 01:35:14;;;;;;;16.60;15.30;;;15.40;99.90;;;;;;4954299;29;20464;-71
2022/08/21 01:37:42;;;;;;;14.23;13.53;;;15.40;99.90;;;;;;4953717;28;20468;-71
2022/08/21 01:40:11;;;;;;;15.50;14.80;;;15.40;99.90;;;;;;4954111;29;20488;-71
2022/08/21 01:42:39;;;;;;;15.20;14.10;;;15.30;99.90;;;;;;4954264;29;21101;-71
2022/08/21 01:45:08;;;;;;;14.83;14.13;;;15.30;99.90;;;;;;4954232;29;20460;-70
2022/08/21 01:47:34;;;;;;;15.50;14.40;;;15.30;99.90;;;;;;4954093;29;20523;-70
2022/08/21 01:50:01;;;;;;;16.10;15.00;;;15.30;99.90;;;;;;4953934;29;20457;-71
2022/08/21 01:52:29;;;;;;;16.03;15.10;;;15.30;99.90;;;;;;4953891;29;20461;-70
2022/08/21 01:54:56;;;;;;;15.23;14.37;;;15.20;99.90;;;;;;4953952;29;20456;-71
2022/08/21 01:57:24;;;;;;;15.00;14.10;;;15.20;99.90;;;;;;4954098;29;21013;-72
2022/08/21 01:59:51;;;;;;;16.07;15.17;;;15.20;99.90;;;;;;4954004;29;20456;-71
2022/08/21 02:02:18;;;;;;;14.77;13.87;;;15.20;99.90;;;;;;4953778;29;20484;-71
2022/08/21 02:04:45;;;;;;;15.17;14.27;;;15.10;99.90;;;;;;4953657;29;20456;-74
2022/08/21 18:02:15;;;;;;;12.23;11.70;;;25.30;51.40;;;;;;5720729;23;21013;-77
2022/08/21 18:04:42;;;;;;;13.00;12.37;;;25.10;52.00;;;;;;4890184;29;20487;-78
2022/08/21 18:07:09;;;;;;;12.87;12.20;;;25.00;52.70;;;;;;4896329;29;20451;-79
2022/08/21 18:09:36;;;;;;;12.30;11.50;;;24.80;52.80;;;;;;4896267;29;20689;-78
2022/08/21 18:12:04;;;;;;;13.03;12.43;;;24.80;53.40;;;;;;4896143;29;20482;-78
2022/08/21 18:14:34;;;;;;;13.00;12.33;;;24.60;53.30;;;;;;4895968;29;20467;-76
2022/08/21 18:17:01;;;;;;;12.80;12.20;;;24.50;53.70;;;;;;4895859;29;20463;-77
2022/08/21 18:19:30;;;;;;;13.20;12.40;;;24.40;53.90;;;;;;4895732;29;20471;-79
2022/08/21 18:21:57;;;;;;;13.00;12.20;;;24.30;54.60;;;;;;4895998;29;20949;-77
2022/08/21 18:24:24;;;;;;;13.07;12.20;;;24.10;55.60;;;;;;4896122;29;20513;-78
2022/08/21 18:26:52;;;;;;;14.27;13.30;;;23.90;56.30;;;;;;4896221;29;20689;-76
2022/08/21 18:29:21;;;;;;;13.90;13.20;;;23.80;57.20;;;;;;4895991;29;20451;-79
2022/08/21 18:31:49;;;;;;;13.43;12.43;;;23.60;58.30;;;;;;4895667;29;20470;-79
2022/08/21 18:34:22;;;;;;;14.67;13.50;;;23.40;59.00;;;;;;4895625;29;20467;-76
2022/08/21 18:36:51;;;;;;;12.30;11.80;;;23.20;59.90;;;;;;4895641;29;20470;-79
2022/08/21 18:39:18;;;;;;;12.00;11.40;;;22.90;60.80;;;;;;4895644;29;20451;-77
2022/08/21 18:41:46;;;;;;;12.20;11.60;;;22.80;61.50;;;;;;4895625;29;20466;-75
2022/08/21 18:44:14;;;;;;;12.23;11.63;;;22.60;63.70;;;;;;4895541;29;20503;-76
2022/08/21 18:46:51;;;;;;;10.93;10.43;;;22.50;64.30;;;;;;4895626;29;20455;-76
2022/08/21 18:49:19;;;;;;;12.33;11.40;;;22.40;66.90;;;;;;4895572;29;20474;-76
2022/08/21 18:51:45;;;;;;;11.97;11.07;;;22.20;66.30;;;;;;4895494;29;20496;-77
2022/08/21 18:54:14;;;;;;;11.93;11.10;;;22.10;67.00;;;;;;4895676;29;20455;-76
2022/08/21 18:56:41;;;;;;;13.07;12.33;;;22.00;67.30;;;;;;4895628;29;20451;-75
2022/08/21 18:59:09;;;;;;;11.50;10.90;;;21.80;68.60;;;;;;4895192;29;20541;-76
2022/08/21 19:01:36;;;;;;;12.27;11.50;;;21.70;70.80;;;;;;4895147;29;20938;-75
2022/08/21 19:04:04;;;;;;;12.00;11.20;;;21.60;73.40;;;;;;4895137;29;20491;-76
2022/08/21 19:06:31;;;;;;;12.57;11.67;;;21.50;75.30;;;;;;4874815;29;20467;-75
2022/08/21 19:09:00;;;;;;;11.57;10.90;;;21.40;77.10;;;;;;4876542;29;20463;-76
2022/08/21 19:11:29;;;;;;;12.43;11.67;;;21.40;79.40;;;;;;4876333;29;20456;-75
2022/08/21 19:13:55;;;;;;;13.00;12.03;;;21.30;80.10;;;;;;4876668;29;20463;-76
2022/08/21 19:16:22;;;;;;;12.63;11.93;;;21.20;80.10;;;;;;4876155;29;21068;-76
2022/08/21 19:18:49;;;;;;;13.10;12.30;;;21.10;82.10;;;;;;4876228;29;20452;-76
2022/08/21 19:21:16;;;;;;;13.53;12.53;;;21.00;82.50;;;;;;4876303;29;20452;-76
2022/08/21 19:23:46;;;;;;;13.70;12.80;;;20.90;83.60;;;;;;4876406;29;20499;-76
2022/08/21 19:26:15;;;;;;;13.43;12.53;;;20.90;85.40;;;;;;4876421;29;20860;-76
2022/08/21 19:28:47;;;;;;;13.70;13.03;;;20.80;85.90;;;;;;4876179;29;20822;-77
2022/08/21 19:31:17;;;;;;;13.23;12.40;;;20.70;88.60;;;;;;4875192;29;20456;-76
2022/08/21 19:33:47;;;;;;;13.10;12.50;;;20.70;90.40;;;;;;4875924;29;20464;-76
2022/08/21 19:36:15;;;;;;;11.90;11.20;;;20.70;90.30;;;;;;4876220;29;20478;-76
2022/08/21 19:38:42;;;;;;;11.80;11.00;;;20.70;90.40;;;;;;4876231;29;20475;-75
2022/08/21 19:41:11;;;;;;;13.30;12.43;;;20.50;90.60;;;;;;4875629;29;21085;-75
2022/08/21 19:43:41;;;;;;;12.70;12.00;;;20.30;91.40;;;;;;4875674;29;20503;-76
2022/08/21 19:46:09;;;;;;;14.93;13.73;;;20.20;92.20;;;;;;4875752;29;20463;-75
2022/08/21 19:48:37;;;;;;;12.50;11.80;;;20.10;93.20;;;;;;4875581;29;20452;-77
2022/08/21 19:51:04;;;;;;;13.63;12.93;;;20.10;93.90;;;;;;4875416;29;21001;-76
2022/08/21 19:53:31;;;;;;;13.40;12.47;;;20.10;94.70;;;;;;4875618;29;20460;-76
2022/08/21 19:55:57;;;;;;;12.00;11.30;;;20.00;95.50;;;;;;4875968;29;20452;-76
2022/08/21 19:58:33;;;;;;;13.73;12.63;;;20.00;95.20;;;;;;4875607;29;20841;-76
2022/08/21 20:00:59;;;;;;;13.00;12.20;;;19.90;95.90;;;;;;4875683;29;20527;-74
2022/08/21 20:03:27;;;;;;;12.67;11.97;;;19.80;95.90;;;;;;4877684;29;21116;-75
2022/08/21 20:05:54;;;;;;;14.70;13.77;;;19.90;96.70;;;;;;4894236;29;20460;-74
2022/08/21 20:08:23;;;;;;;14.33;13.10;;;19.90;96.50;;;;;;4893918;29;20463;-75
2022/08/21 20:10:51;;;;;;;14.10;13.17;;;19.90;96.40;;;;;;4894057;29;20463;-74
2022/08/21 20:13:20;;;;;;;14.27;13.27;;;19.90;96.40;;;;;;4893728;29;20463;-74
2022/08/21 20:15:47;;;;;;;11.87;10.87;;;19.90;96.70;;;;;;4894011;29;20567;-74
2022/08/21 20:18:14;;;;;;;13.30;12.43;;;19.90;97.40;;;;;;4894130;29;20458;-75
2022/08/21 20:20:42;;;;;;;12.57;11.67;;;19.80;97.00;;;;;;4894261;29;20455;-74
2022/08/21 20:23:09;;;;;;;13.17;12.37;;;19.80;96.60;;;;;;4893917;29;20480;-75
2022/08/21 20:25:36;;;;;;;12.73;11.63;;;19.70;96.20;;;;;;4893910;29;20911;-74
2022/08/21 20:28:03;;;;;;;13.13;12.50;;;19.60;96.70;;;;;;4894029;29;20474;-73
2022/08/21 20:30:30;;;;;;;11.50;10.73;;;19.60;97.40;;;;;;4893987;29;20463;-75
2022/08/21 20:32:57;;;;;;;13.40;12.30;;;19.60;97.80;;;;;;4894085;29;20468;-75
2022/08/21 20:35:24;;;;;;;13.63;12.37;;;19.60;97.70;;;;;;4893675;29;20957;-76
2022/08/21 20:37:52;;;;;;;14.30;13.03;;;19.70;97.90;;;;;;4893909;29;20451;-75
2022/08/21 20:40:19;;;;;;;14.27;13.17;;;19.70;98.30;;;;;;4893866;29;20856;-73
2022/08/21 20:42:49;;;;;;;13.00;12.00;;;19.70;98.40;;;;;;4894748;29;20527;-73
2022/08/21 20:45:20;;;;;;;13.50;12.70;;;19.80;98.70;;;;;;4897229;29;20863;-73
2022/08/21 20:47:47;;;;;;;13.73;12.53;;;19.80;98.80;;;;;;4897224;29;20455;-74
2022/08/21 20:50:21;;;;;;;13.53;12.50;;;19.80;99.00;;;;;;4897343;29;20466;-73
2022/08/21 20:52:52;;;;;;;13.67;12.67;;;19.70;99.20;;;;;;4897148;29;20466;-73
2022/08/21 20:55:24;;;;;;;14.17;13.03;;;19.70;99.40;;;;;;4896871;29;20722;-74
2022/08/21 20:57:57;;;;;;;13.57;12.60;;;19.70;99.40;;;;;;4897149;29;20463;-73
2022/08/21 21:00:26;;;;;;;12.83;12.03;;;19.60;99.30;;;;;;4896935;29;20479;-74
2022/08/21 21:02:59;;;;;;;14.43;13.53;;;19.50;99.40;;;;;;4896720;29;20471;-75
2022/08/21 21:05:28;;;;;;;12.83;11.97;;;19.50;99.50;;;;;;4897057;29;20513;-75
2022/08/21 21:08:02;;;;;;;13.00;12.27;;;19.40;99.80;;;;;;4897235;29;20797;-73
2022/08/21 21:10:36;;;;;;;13.40;12.60;;;19.50;99.90;;;;;;4896937;29;20827;-73
2022/08/21 21:13:09;;;;;;;12.73;12.13;;;19.40;99.90;;;;;;4896870;29;20465;-73
2022/08/21 21:15:38;;;;;;;14.03;13.07;;;19.30;99.90;;;;;;4896732;29;20452;-72
2022/08/21 21:18:12;;;;;;;13.00;12.30;;;19.30;99.90;;;;;;4896194;29;20797;-74
2022/08/21 21:20:44;;;;;;;14.20;13.40;;;19.20;99.90;;;;;;4896650;29;20945;-74
2022/08/21 21:23:19;;;;;;;14.57;13.60;;;19.10;99.90;;;;;;4896633;29;20467;-74
2022/08/21 21:25:55;;;;;;;13.53;12.73;;;19.10;99.90;;;;;;4896619;29;20864;-73
2022/08/21 21:28:29;;;;;;;14.50;13.50;;;19.00;99.90;;;;;;4896534;29;20972;-75
2022/08/21 21:30:55;;;;;;;13.73;12.83;;;19.00;99.90;;;;;;4894631;29;20823;-76
2022/08/21 21:33:25;;;;;;;14.33;13.53;;;19.00;99.90;;;;;;4896632;29;20954;-75
2022/08/21 21:35:58;;;;;;;14.87;13.83;;;19.00;99.90;;;;;;4897071;29;20451;-77
2022/08/21 21:38:31;;;;;;;14.47;13.40;;;18.90;99.90;;;;;;4897231;29;20467;-75
2022/08/21 21:41:10;;;;;;;13.93;13.17;;;18.80;99.90;;;;;;4897247;29;20459;-75
2022/08/21 21:43:55;;;;;;;13.63;12.63;;;18.80;99.90;;;;;;4897101;29;20462;-77
2022/08/21 21:46:33;;;;;;;14.37;13.20;;;18.70;99.90;;;;;;4897028;29;20801;-77
2022/08/21 21:49:23;;;;;;;13.73;12.93;;;18.60;99.90;;;;;;4897407;29;20855;-77
2022/08/21 21:51:59;;;;;;;12.90;12.13;;;18.60;99.90;;;;;;4897390;29;20455;-78
2022/08/21 21:54:45;;;;;;;14.30;13.50;;;18.50;99.90;;;;;;4896762;29;20447;-78
2022/08/21 21:57:24;;;;;;;13.33;12.53;;;18.50;99.90;;;;;;4897342;29;20541;-77
2022/08/21 21:59:57;;;;;;;13.47;12.70;;;18.40;99.90;;;;;;4897461;29;20800;-79
2022/08/21 22:02:37;;;;;;;13.20;12.30;;;18.30;99.90;;;;;;4897292;29;20455;-80
2022/08/21 22:05:12;;;;;;;14.47;13.40;;;18.30;99.90;;;;;;4896685;29;20517;-76
2022/08/21 22:07:43;;;;;;;13.60;12.40;;;18.20;99.90;;;;;;4896953;29;20463;-76
2022/08/21 22:10:19;;;;;;;14.77;13.67;;;18.20;99.90;;;;;;4896976;29;20478;-76
2022/08/21 22:12:56;;;;;;;14.33;13.40;;;18.20;99.90;;;;;;4896479;29;20459;-76
2022/08/21 22:15:22;;;;;;;13.93;12.50;;;18.20;99.90;;;;;;4896781;29;20454;-79
2022/08/21 22:17:55;;;;;;;13.53;12.43;;;18.20;99.90;;;;;;4896902;29;20455;-81
2022/08/21 22:20:29;;;;;;;15.47;13.87;;;18.10;99.90;;;;;;4896831;29;21008;-79
2022/08/21 22:22:57;;;;;;;14.63;13.30;;;18.00;99.90;;;;;;4897107;29;20466;-79
2022/08/21 22:25:26;;;;;;;14.70;13.90;;;18.00;99.90;;;;;;4897049;29;20490;-80
2022/08/21 22:28:08;;;;;;;13.67;12.77;;;17.90;99.90;;;;;;4897089;29;20883;-79
2022/08/21 22:30:42;;;;;;;14.93;14.10;;;17.90;99.90;;;;;;4897002;29;20459;-81
2022/08/21 22:33:12;;;;;;;14.33;13.33;;;17.90;99.90;;;;;;4896872;29;20458;-79
2022/08/21 22:35:39;;;;;;;14.93;13.57;;;17.80;99.90;;;;;;4896707;29;20459;-81
2022/08/21 22:38:16;;;;;;;14.80;13.80;;;17.70;99.90;;;;;;4896736;29;20486;-81
2022/08/21 22:40:43;;;;;;;14.57;13.47;;;17.70;99.90;;;;;;4896730;29;20454;-80
2022/08/21 22:43:20;;;;;;;13.97;12.80;;;17.70;99.90;;;;;;4896587;29;20460;-80
2022/08/21 22:45:57;;;;;;;13.67;12.87;;;17.70;99.90;;;;;;4896276;29;20495;-80
2022/08/21 22:48:25;;;;;;;15.17;14.07;;;17.60;99.90;;;;;;4896458;29;20522;-80
2022/08/21 22:50:57;;;;;;;13.60;12.70;;;17.60;99.90;;;;;;4896232;29;20566;-80
2022/08/21 22:53:28;;;;;;;13.50;12.60;;;17.60;99.90;;;;;;4896879;29;20447;-82
2022/08/21 22:55:56;;;;;;;13.67;12.87;;;17.50;99.90;;;;;;4896672;29;20486;-81
2022/08/21 22:58:29;;;;;;;13.70;13.00;;;17.50;99.90;;;;;;4896253;29;20482;-80
2022/08/21 23:01:00;;;;;;;15.73;14.63;;;17.50;99.90;;;;;;4895935;29;20482;-79
2022/08/21 23:03:31;;;;;;;14.03;13.20;;;17.50;99.90;;;;;;4895659;29;20554;-80
2022/08/21 23:05:59;;;;;;;15.33;14.23;;;17.50;99.90;;;;;;4895816;29;21026;-79
2022/08/21 23:08:31;;;;;;;14.37;13.57;;;17.50;99.90;;;;;;4896042;29;20511;-79
2022/08/21 23:11:01;;;;;;;14.80;13.87;;;17.40;99.90;;;;;;4896308;29;20463;-81
2022/08/21 23:13:39;;;;;;;15.00;14.07;;;17.40;99.90;;;;;;4896462;29;20466;-83
2022/08/21 23:16:18;;;;;;;15.57;14.67;;;17.40;99.90;;;;;;4896198;29;20478;-81
2022/08/21 23:18:57;;;;;;;15.33;14.10;;;17.40;99.90;;;;;;4896316;29;20481;-81
2022/08/21 23:21:32;;;;;;;14.13;13.20;;;17.50;99.90;;;;;;4896232;29;20463;-83
2022/08/21 23:24:14;;;;;;;14.93;13.83;;;17.40;99.90;;;;;;4896234;29;20457;-83
2022/08/21 23:26:47;;;;;;;15.53;14.23;;;17.40;99.90;;;;;;4895755;29;20439;-84
2022/08/21 23:29:25;;;;;;;15.20;14.30;;;17.40;99.90;;;;;;4896026;29;20451;-84
2022/08/21 23:32:02;;;;;;;15.97;14.67;;;17.40;99.90;;;;;;4895227;29;20451;-84
2022/08/21 23:34:40;;;;;;;17.37;15.77;;;17.40;99.90;;;;;;4895852;29;20454;-85
2022/08/21 23:40:13;;;;;;;15.73;14.83;;;17.30;99.90;;;;;;4896444;29;20435;-81
2022/08/21 23:43:04;;;;;;;14.77;13.77;;;17.20;99.90;;;;;;4896188;29;20458;-81
2022/08/21 23:45:40;;;;;;;15.30;14.30;;;17.20;99.90;;;;;;4896126;29;21013;-82
2022/08/21 23:48:16;;;;;;;16.10;14.93;;;17.10;99.90;;;;;;4896315;29;20467;-82
2022/08/21 23:50:51;;;;;;;14.53;13.63;;;17.00;99.90;;;;;;4896318;29;21078;-82
2022/08/21 23:53:29;;;;;;;16.97;15.87;;;17.00;99.90;;;;;;4896111;29;20953;-81
2022/08/21 23:56:10;;;;;;;15.70;14.73;;;16.90;99.90;;;;;;4895775;29;20495;-81
2022/08/21 23:58:46;;;;;;;15.40;14.60;;;16.90;99.90;;;;;;4895660;29;20455;-81
